sensor_id;sensor_type;location;lat;lon;timestamp;P1;durP1;ratioP1;P2;durP2;ratioP2
38312;SDS011;24114;52.260;6.714;2022-09-09T00:00:51;1.52;;;0.57;;
38312;SDS011;24114;52.260;6.714;2022-09-09T00:03:22;1.50;;;0.53;;
38312;SDS011;24114;52.260;6.714;2022-09-09T00:05:55;2.03;;;0.65;;
38312;SDS011;24114;52.260;6.714;2022-09-09T00:08:33;1.85;;;0.50;;
38312;SDS011;24114;52.260;6.714;2022-09-09T00:11:07;2.63;;;0.50;;
38312;SDS011;24114;52.260;6.714;2022-09-09T00:13:39;1.10;;;0.50;;
38312;SDS011;24114;52.260;6.714;2022-09-09T00:16:10;1.63;;;0.52;;
38312;SDS011;24114;52.260;6.714;2022-09-09T00:18:46;1.10;;;0.30;;
38312;SDS011;24114;52.260;6.714;2022-09-09T00:21:18;1.40;;;0.40;;
38312;SDS011;24114;52.260;6.714;2022-09-09T00:23:48;2.30;;;0.60;;
38312;SDS011;24114;52.260;6.714;2022-09-09T00:26:20;1.70;;;0.40;;
38312;SDS011;24114;52.260;6.714;2022-09-09T00:28:55;1.67;;;0.47;;
38312;SDS011;24114;52.260;6.714;2022-09-09T00:31:27;1.17;;;0.40;;
38312;SDS011;24114;52.260;6.714;2022-09-09T00:33:56;1.33;;;0.30;;
38312;SDS011;24114;52.260;6.714;2022-09-09T00:36:28;1.90;;;0.60;;
38312;SDS011;24114;52.260;6.714;2022-09-09T00:38:58;1.37;;;0.50;;
38312;SDS011;24114;52.260;6.714;2022-09-09T00:41:31;2.65;;;0.57;;
38312;SDS011;24114;52.260;6.714;2022-09-09T00:44:12;2.25;;;0.70;;
38312;SDS011;24114;52.260;6.714;2022-09-09T00:46:49;2.27;;;0.63;;
38312;SDS011;24114;52.260;6.714;2022-09-09T00:49:26;1.73;;;0.73;;
38312;SDS011;24114;52.260;6.714;2022-09-09T00:52:08;1.27;;;0.70;;
38312;SDS011;24114;52.260;6.714;2022-09-09T00:54:45;1.40;;;0.60;;
38312;SDS011;24114;52.260;6.714;2022-09-09T00:57:22;1.53;;;0.60;;
38312;SDS011;24114;52.260;6.714;2022-09-09T01:02:56;1.40;;;0.75;;
38312;SDS011;24114;52.260;6.714;2022-09-09T01:05:34;2.25;;;0.88;;
38312;SDS011;24114;52.260;6.714;2022-09-09T01:08:05;1.35;;;0.75;;
38312;SDS011;24114;52.260;6.714;2022-09-09T01:10:39;1.10;;;0.70;;
38312;SDS011;24114;52.260;6.714;2022-09-09T01:13:15;2.92;;;1.00;;
38312;SDS011;24114;52.260;6.714;2022-09-09T01:15:46;2.30;;;0.90;;
38312;SDS011;24114;52.260;6.714;2022-09-09T01:18:16;1.13;;;0.90;;
38312;SDS011;24114;52.260;6.714;2022-09-09T01:20:47;1.40;;;0.73;;
38312;SDS011;24114;52.260;6.714;2022-09-09T01:23:27;2.50;;;1.33;;
38312;SDS011;24114;52.260;6.714;2022-09-09T01:28:50;1.50;;;1.40;;
38312;SDS011;24114;52.260;6.714;2022-09-09T01:31:20;2.25;;;1.48;;
38312;SDS011;24114;52.260;6.714;2022-09-09T01:33:50;2.20;;;1.40;;
38312;SDS011;24114;52.260;6.714;2022-09-09T01:36:20;1.70;;;1.20;;
38312;SDS011;24114;52.260;6.714;2022-09-09T01:38:52;1.63;;;1.20;;
38312;SDS011;24114;52.260;6.714;2022-09-09T01:41:20;1.50;;;1.20;;
38312;SDS011;24114;52.260;6.714;2022-09-09T01:43:49;1.98;;;1.30;;
38312;SDS011;24114;52.260;6.714;2022-09-09T01:46:17;1.93;;;1.40;;
38312;SDS011;24114;52.260;6.714;2022-09-09T01:48:47;1.17;;;1.00;;
38312;SDS011;24114;52.260;6.714;2022-09-09T01:51:15;1.48;;;1.38;;
38312;SDS011;24114;52.260;6.714;2022-09-09T01:53:43;2.50;;;1.40;;
38312;SDS011;24114;52.260;6.714;2022-09-09T01:56:15;1.40;;;1.20;;
38312;SDS011;24114;52.260;6.714;2022-09-09T01:58:54;1.92;;;1.27;;
38312;SDS011;24114;52.260;6.714;2022-09-09T02:01:34;2.30;;;1.13;;
38312;SDS011;24114;52.260;6.714;2022-09-09T02:04:11;2.45;;;0.88;;
38312;SDS011;24114;52.260;6.714;2022-09-09T02:06:48;1.30;;;1.20;;
38312;SDS011;24114;52.260;6.714;2022-09-09T02:09:16;1.27;;;0.85;;
38312;SDS011;24114;52.260;6.714;2022-09-09T02:11:46;2.10;;;1.30;;
38312;SDS011;24114;52.260;6.714;2022-09-09T02:14:16;1.45;;;1.20;;
38312;SDS011;24114;52.260;6.714;2022-09-09T02:16:47;1.77;;;1.25;;
38312;SDS011;24114;52.260;6.714;2022-09-09T02:19:18;1.73;;;1.10;;
38312;SDS011;24114;52.260;6.714;2022-09-09T02:21:52;3.00;;;1.30;;
38312;SDS011;24114;52.260;6.714;2022-09-09T02:24:21;1.70;;;1.20;;
38312;SDS011;24114;52.260;6.714;2022-09-09T02:26:50;1.30;;;1.00;;
38312;SDS011;24114;52.260;6.714;2022-09-09T02:29:22;2.22;;;1.30;;
38312;SDS011;24114;52.260;6.714;2022-09-09T02:31:51;2.22;;;1.40;;
38312;SDS011;24114;52.260;6.714;2022-09-09T02:34:21;2.60;;;1.50;;
38312;SDS011;24114;52.260;6.714;2022-09-09T02:36:50;1.70;;;1.27;;
38312;SDS011;24114;52.260;6.714;2022-09-09T02:39:19;2.53;;;1.20;;
38312;SDS011;24114;52.260;6.714;2022-09-09T02:41:47;1.70;;;1.25;;
38312;SDS011;24114;52.260;6.714;2022-09-09T02:44:15;2.25;;;1.50;;
38312;SDS011;24114;52.260;6.714;2022-09-09T02:46:50;1.50;;;1.40;;
38312;SDS011;24114;52.260;6.714;2022-09-09T02:49:28;1.40;;;0.98;;
38312;SDS011;24114;52.260;6.714;2022-09-09T02:52:04;1.43;;;1.10;;
38312;SDS011;24114;52.260;6.714;2022-09-09T02:54:34;1.25;;;1.15;;
38312;SDS011;24114;52.260;6.714;2022-09-09T02:57:04;1.87;;;1.30;;
38312;SDS011;24114;52.260;6.714;2022-09-09T02:59:35;1.65;;;1.25;;
38312;SDS011;24114;52.260;6.714;2022-09-09T03:02:05;1.30;;;1.20;;
38312;SDS011;24114;52.260;6.714;2022-09-09T03:04:33;1.58;;;1.38;;
38312;SDS011;24114;52.260;6.714;2022-09-09T03:07:00;2.15;;;1.13;;
38312;SDS011;24114;52.260;6.714;2022-09-09T03:09:29;1.80;;;1.30;;
38312;SDS011;24114;52.260;6.714;2022-09-09T03:11:58;1.65;;;1.40;;
38312;SDS011;24114;52.260;6.714;2022-09-09T03:14:26;2.25;;;1.15;;
38312;SDS011;24114;52.260;6.714;2022-09-09T03:16:54;1.20;;;1.10;;
38312;SDS011;24114;52.260;6.714;2022-09-09T03:19:24;1.38;;;1.00;;
38312;SDS011;24114;52.260;6.714;2022-09-09T03:21:52;1.53;;;0.97;;
38312;SDS011;24114;52.260;6.714;2022-09-09T03:24:19;1.40;;;1.00;;
38312;SDS011;24114;52.260;6.714;2022-09-09T03:26:48;1.33;;;1.02;;
38312;SDS011;24114;52.260;6.714;2022-09-09T03:29:16;1.33;;;1.02;;
38312;SDS011;24114;52.260;6.714;2022-09-09T03:31:44;1.40;;;1.00;;
38312;SDS011;24114;52.260;6.714;2022-09-09T03:34:12;1.27;;;1.03;;
38312;SDS011;24114;52.260;6.714;2022-09-09T03:36:42;1.25;;;1.05;;
38312;SDS011;24114;52.260;6.714;2022-09-09T03:39:09;1.80;;;1.00;;
38312;SDS011;24114;52.260;6.714;2022-09-09T03:41:37;2.67;;;0.80;;
38312;SDS011;24114;52.260;6.714;2022-09-09T03:44:05;1.83;;;0.80;;
38312;SDS011;24114;52.260;6.714;2022-09-09T03:46:32;1.20;;;0.90;;
38312;SDS011;24114;52.260;6.714;2022-09-09T03:49:00;1.55;;;1.05;;
38312;SDS011;24114;52.260;6.714;2022-09-09T03:51:28;1.42;;;0.90;;
38312;SDS011;24114;52.260;6.714;2022-09-09T03:53:57;1.88;;;0.80;;
38312;SDS011;24114;52.260;6.714;2022-09-09T03:56:25;1.08;;;0.85;;
38312;SDS011;24114;52.260;6.714;2022-09-09T03:58:53;1.80;;;1.02;;
38312;SDS011;24114;52.260;6.714;2022-09-09T04:01:20;1.90;;;1.20;;
38312;SDS011;24114;52.260;6.714;2022-09-09T04:03:48;1.10;;;0.80;;
38312;SDS011;24114;52.260;6.714;2022-09-09T04:06:16;1.73;;;1.00;;
38312;SDS011;24114;52.260;6.714;2022-09-09T04:08:44;1.40;;;1.10;;
38312;SDS011;24114;52.260;6.714;2022-09-09T04:11:15;1.80;;;0.98;;
38312;SDS011;24114;52.260;6.714;2022-09-09T04:13:44;2.10;;;1.23;;
38312;SDS011;24114;52.260;6.714;2022-09-09T04:16:11;2.33;;;1.13;;
38312;SDS011;24114;52.260;6.714;2022-09-09T04:18:41;2.15;;;1.20;;
38312;SDS011;24114;52.260;6.714;2022-09-09T04:21:09;2.22;;;1.38;;
38312;SDS011;24114;52.260;6.714;2022-09-09T04:23:38;1.75;;;1.42;;
38312;SDS011;24114;52.260;6.714;2022-09-09T04:26:06;2.50;;;1.60;;
38312;SDS011;24114;52.260;6.714;2022-09-09T04:28:36;2.03;;;1.55;;
38312;SDS011;24114;52.260;6.714;2022-09-09T04:31:05;2.90;;;2.03;;
38312;SDS011;24114;52.260;6.714;2022-09-09T04:33:33;2.15;;;1.52;;
38312;SDS011;24114;52.260;6.714;2022-09-09T04:36:05;3.00;;;1.40;;
38312;SDS011;24114;52.260;6.714;2022-09-09T04:38:33;2.25;;;2.05;;
38312;SDS011;24114;52.260;6.714;2022-09-09T04:41:01;3.00;;;1.67;;
38312;SDS011;24114;52.260;6.714;2022-09-09T04:43:29;3.13;;;1.67;;
38312;SDS011;24114;52.260;6.714;2022-09-09T04:45:58;2.53;;;1.80;;
38312;SDS011;24114;52.260;6.714;2022-09-09T04:48:26;2.35;;;1.98;;
38312;SDS011;24114;52.260;6.714;2022-09-09T04:50:54;1.83;;;1.70;;
38312;SDS011;24114;52.260;6.714;2022-09-09T04:53:23;2.63;;;1.90;;
38312;SDS011;24114;52.260;6.714;2022-09-09T04:55:51;2.88;;;2.13;;
38312;SDS011;24114;52.260;6.714;2022-09-09T04:58:19;2.93;;;1.70;;
38312;SDS011;24114;52.260;6.714;2022-09-09T05:00:48;4.25;;;2.10;;
38312;SDS011;24114;52.260;6.714;2022-09-09T05:03:19;2.77;;;2.37;;
38312;SDS011;24114;52.260;6.714;2022-09-09T05:05:47;2.20;;;2.00;;
38312;SDS011;24114;52.260;6.714;2022-09-09T05:08:15;2.25;;;2.05;;
38312;SDS011;24114;52.260;6.714;2022-09-09T05:10:42;2.67;;;2.00;;
38312;SDS011;24114;52.260;6.714;2022-09-09T05:13:10;3.97;;;1.80;;
38312;SDS011;24114;52.260;6.714;2022-09-09T05:15:38;3.60;;;2.00;;
38312;SDS011;24114;52.260;6.714;2022-09-09T05:18:07;2.30;;;2.03;;
38312;SDS011;24114;52.260;6.714;2022-09-09T05:20:36;2.47;;;2.03;;
38312;SDS011;24114;52.260;6.714;2022-09-09T05:23:03;2.72;;;1.80;;
38312;SDS011;24114;52.260;6.714;2022-09-09T05:25:31;2.40;;;1.70;;
38312;SDS011;24114;52.260;6.714;2022-09-09T05:27:59;3.47;;;1.70;;
38312;SDS011;24114;52.260;6.714;2022-09-09T05:30:27;3.58;;;2.00;;
38312;SDS011;24114;52.260;6.714;2022-09-09T05:32:55;3.15;;;1.70;;
38312;SDS011;24114;52.260;6.714;2022-09-09T05:35:23;2.93;;;1.70;;
38312;SDS011;24114;52.260;6.714;2022-09-09T05:37:52;3.05;;;1.70;;
38312;SDS011;24114;52.260;6.714;2022-09-09T05:40:20;4.75;;;2.20;;
38312;SDS011;24114;52.260;6.714;2022-09-09T05:42:48;3.25;;;2.00;;
38312;SDS011;24114;52.260;6.714;2022-09-09T05:45:16;2.70;;;1.75;;
38312;SDS011;24114;52.260;6.714;2022-09-09T05:47:43;2.90;;;1.90;;
38312;SDS011;24114;52.260;6.714;2022-09-09T05:50:11;3.08;;;2.17;;
38312;SDS011;24114;52.260;6.714;2022-09-09T05:52:40;3.25;;;1.83;;
38312;SDS011;24114;52.260;6.714;2022-09-09T05:55:10;2.42;;;1.80;;
38312;SDS011;24114;52.260;6.714;2022-09-09T05:57:38;3.30;;;2.20;;
38312;SDS011;24114;52.260;6.714;2022-09-09T06:00:07;2.53;;;1.90;;
38312;SDS011;24114;52.260;6.714;2022-09-09T06:02:35;3.17;;;2.20;;
38312;SDS011;24114;52.260;6.714;2022-09-09T06:05:05;2.65;;;2.10;;
38312;SDS011;24114;52.260;6.714;2022-09-09T06:07:34;2.95;;;2.03;;
38312;SDS011;24114;52.260;6.714;2022-09-09T06:10:02;3.45;;;2.60;;
38312;SDS011;24114;52.260;6.714;2022-09-09T06:12:31;4.05;;;2.65;;
38312;SDS011;24114;52.260;6.714;2022-09-09T06:14:59;4.30;;;2.00;;
38312;SDS011;24114;52.260;6.714;2022-09-09T06:17:26;5.00;;;2.90;;
38312;SDS011;24114;52.260;6.714;2022-09-09T06:19:54;3.50;;;2.30;;
38312;SDS011;24114;52.260;6.714;2022-09-09T06:22:22;4.75;;;2.80;;
38312;SDS011;24114;52.260;6.714;2022-09-09T06:24:49;2.63;;;2.03;;
38312;SDS011;24114;52.260;6.714;2022-09-09T06:27:17;4.07;;;2.47;;
38312;SDS011;24114;52.260;6.714;2022-09-09T06:29:46;3.27;;;2.33;;
38312;SDS011;24114;52.260;6.714;2022-09-09T06:32:14;4.40;;;2.22;;
38312;SDS011;24114;52.260;6.714;2022-09-09T06:34:41;4.30;;;2.22;;
38312;SDS011;24114;52.260;6.714;2022-09-09T06:37:10;3.28;;;2.00;;
38312;SDS011;24114;52.260;6.714;2022-09-09T06:39:38;3.35;;;2.08;;
38312;SDS011;24114;52.260;6.714;2022-09-09T06:42:06;4.57;;;2.30;;
38312;SDS011;24114;52.260;6.714;2022-09-09T06:44:35;3.60;;;1.98;;
38312;SDS011;24114;52.260;6.714;2022-09-09T06:47:04;2.78;;;2.03;;
38312;SDS011;24114;52.260;6.714;2022-09-09T06:49:32;3.97;;;2.15;;
38312;SDS011;24114;52.260;6.714;2022-09-09T06:52:01;4.63;;;2.20;;
38312;SDS011;24114;52.260;6.714;2022-09-09T06:54:28;6.85;;;2.28;;
38312;SDS011;24114;52.260;6.714;2022-09-09T06:56:56;3.80;;;2.05;;
38312;SDS011;24114;52.260;6.714;2022-09-09T06:59:30;3.40;;;2.30;;
38312;SDS011;24114;52.260;6.714;2022-09-09T07:01:57;4.65;;;2.45;;
38312;SDS011;24114;52.260;6.714;2022-09-09T07:04:27;4.30;;;2.00;;
38312;SDS011;24114;52.260;6.714;2022-09-09T07:06:54;3.63;;;2.30;;
38312;SDS011;24114;52.260;6.714;2022-09-09T07:09:22;4.18;;;2.03;;
38312;SDS011;24114;52.260;6.714;2022-09-09T07:11:50;3.22;;;1.40;;
38312;SDS011;24114;52.260;6.714;2022-09-09T07:14:19;4.80;;;1.95;;
38312;SDS011;24114;52.260;6.714;2022-09-09T07:16:47;3.72;;;1.70;;
38312;SDS011;24114;52.260;6.714;2022-09-09T07:19:15;3.50;;;1.75;;
38312;SDS011;24114;52.260;6.714;2022-09-09T07:21:44;3.95;;;1.67;;
38312;SDS011;24114;52.260;6.714;2022-09-09T07:24:12;3.90;;;1.33;;
38312;SDS011;24114;52.260;6.714;2022-09-09T07:26:39;2.88;;;1.23;;
38312;SDS011;24114;52.260;6.714;2022-09-09T07:29:07;5.95;;;1.77;;
38312;SDS011;24114;52.260;6.714;2022-09-09T07:31:36;4.13;;;1.40;;
38312;SDS011;24114;52.260;6.714;2022-09-09T07:34:06;2.53;;;1.20;;
38312;SDS011;24114;52.260;6.714;2022-09-09T07:36:34;5.40;;;1.73;;
38312;SDS011;24114;52.260;6.714;2022-09-09T07:39:06;4.47;;;1.60;;
38312;SDS011;24114;52.260;6.714;2022-09-09T07:41:36;3.97;;;1.42;;
38312;SDS011;24114;52.260;6.714;2022-09-09T07:44:06;4.07;;;1.43;;
38312;SDS011;24114;52.260;6.714;2022-09-09T07:46:35;4.32;;;1.38;;
38312;SDS011;24114;52.260;6.714;2022-09-09T07:49:06;4.53;;;1.45;;
38312;SDS011;24114;52.260;6.714;2022-09-09T07:51:34;7.63;;;1.95;;
38312;SDS011;24114;52.260;6.714;2022-09-09T07:54:05;3.57;;;1.07;;
38312;SDS011;24114;52.260;6.714;2022-09-09T07:56:36;3.97;;;1.42;;
38312;SDS011;24114;52.260;6.714;2022-09-09T07:59:05;4.45;;;1.75;;
38312;SDS011;24114;52.260;6.714;2022-09-09T08:01:34;3.17;;;1.83;;
38312;SDS011;24114;52.260;6.714;2022-09-09T08:04:06;3.95;;;1.50;;
38312;SDS011;24114;52.260;6.714;2022-09-09T08:06:35;4.53;;;1.20;;
38312;SDS011;24114;52.260;6.714;2022-09-09T08:09:07;6.68;;;1.63;;
38312;SDS011;24114;52.260;6.714;2022-09-09T08:11:35;3.78;;;1.33;;
38312;SDS011;24114;52.260;6.714;2022-09-09T08:14:04;5.50;;;1.63;;
38312;SDS011;24114;52.260;6.714;2022-09-09T08:16:34;5.23;;;1.47;;
38312;SDS011;24114;52.260;6.714;2022-09-09T08:19:03;4.13;;;1.23;;
38312;SDS011;24114;52.260;6.714;2022-09-09T08:21:32;5.22;;;1.45;;
38312;SDS011;24114;52.260;6.714;2022-09-09T08:24:00;4.87;;;1.70;;
38312;SDS011;24114;52.260;6.714;2022-09-09T08:26:30;7.75;;;1.10;;
38312;SDS011;24114;52.260;6.714;2022-09-09T08:29:00;5.90;;;1.23;;
38312;SDS011;24114;52.260;6.714;2022-09-09T08:31:29;5.22;;;1.50;;
38312;SDS011;24114;52.260;6.714;2022-09-09T08:33:59;5.10;;;1.50;;
38312;SDS011;24114;52.260;6.714;2022-09-09T08:36:28;6.60;;;1.45;;
38312;SDS011;24114;52.260;6.714;2022-09-09T08:38:59;5.47;;;1.30;;
38312;SDS011;24114;52.260;6.714;2022-09-09T08:41:35;5.07;;;1.20;;
38312;SDS011;24114;52.260;6.714;2022-09-09T08:44:07;6.00;;;1.73;;
38312;SDS011;24114;52.260;6.714;2022-09-09T08:46:43;5.28;;;1.27;;
38312;SDS011;24114;52.260;6.714;2022-09-09T08:49:19;5.07;;;1.20;;
38312;SDS011;24114;52.260;6.714;2022-09-09T08:52:06;4.68;;;0.98;;
38312;SDS011;24114;52.260;6.714;2022-09-09T08:54:37;5.22;;;1.58;;
38312;SDS011;24114;52.260;6.714;2022-09-09T08:57:20;4.80;;;1.08;;
38312;SDS011;24114;52.260;6.714;2022-09-09T08:59:53;4.60;;;1.17;;
38312;SDS011;24114;52.260;6.714;2022-09-09T09:02:23;4.72;;;1.33;;
38312;SDS011;24114;52.260;6.714;2022-09-09T09:05:06;5.45;;;1.48;;
38312;SDS011;24114;52.260;6.714;2022-09-09T09:07:47;4.45;;;1.00;;
38312;SDS011;24114;52.260;6.714;2022-09-09T09:10:25;4.78;;;1.15;;
38312;SDS011;24114;52.260;6.714;2022-09-09T09:15:46;4.93;;;1.08;;
38312;SDS011;24114;52.260;6.714;2022-09-09T09:18:15;5.00;;;0.90;;
38312;SDS011;24114;52.260;6.714;2022-09-09T09:20:47;6.10;;;1.10;;
38312;SDS011;24114;52.260;6.714;2022-09-09T09:23:21;4.97;;;1.20;;
38312;SDS011;24114;52.260;6.714;2022-09-09T09:25:50;5.60;;;1.40;;
38312;SDS011;24114;52.260;6.714;2022-09-09T09:28:22;7.20;;;1.17;;
38312;SDS011;24114;52.260;6.714;2022-09-09T09:30:52;4.55;;;0.80;;
38312;SDS011;24114;52.260;6.714;2022-09-09T09:33:22;5.47;;;1.17;;
38312;SDS011;24114;52.260;6.714;2022-09-09T09:35:53;6.50;;;1.17;;
38312;SDS011;24114;52.260;6.714;2022-09-09T09:38:22;2.78;;;0.60;;
38312;SDS011;24114;52.260;6.714;2022-09-09T09:41:10;4.47;;;0.88;;
38312;SDS011;24114;52.260;6.714;2022-09-09T09:43:40;5.93;;;0.98;;
38312;SDS011;24114;52.260;6.714;2022-09-09T09:46:17;5.38;;;1.00;;
38312;SDS011;24114;52.260;6.714;2022-09-09T09:48:56;5.40;;;0.80;;
38312;SDS011;24114;52.260;6.714;2022-09-09T09:51:24;3.67;;;1.17;;
38312;SDS011;24114;52.260;6.714;2022-09-09T09:53:52;5.32;;;1.05;;
38312;SDS011;24114;52.260;6.714;2022-09-09T09:56:27;4.13;;;0.63;;
38312;SDS011;24114;52.260;6.714;2022-09-09T09:58:57;3.13;;;0.40;;
38312;SDS011;24114;52.260;6.714;2022-09-09T10:01:34;4.65;;;0.80;;
38312;SDS011;24114;52.260;6.714;2022-09-09T10:04:12;5.20;;;0.73;;
38312;SDS011;24114;52.260;6.714;2022-09-09T10:06:43;2.67;;;0.40;;
38312;SDS011;24114;52.260;6.714;2022-09-09T10:09:20;5.80;;;0.57;;
38312;SDS011;24114;52.260;6.714;2022-09-09T10:11:50;4.70;;;0.80;;
38312;SDS011;24114;52.260;6.714;2022-09-09T10:14:25;3.33;;;0.50;;
38312;SDS011;24114;52.260;6.714;2022-09-09T10:17:01;3.20;;;0.47;;
38312;SDS011;24114;52.260;6.714;2022-09-09T10:19:37;3.97;;;0.70;;
38312;SDS011;24114;52.260;6.714;2022-09-09T10:22:19;4.55;;;1.05;;
38312;SDS011;24114;52.260;6.714;2022-09-09T10:25:10;3.40;;;0.60;;
38312;SDS011;24114;52.260;6.714;2022-09-09T10:27:50;3.23;;;0.67;;
38312;SDS011;24114;52.260;6.714;2022-09-09T10:30:33;3.03;;;0.45;;
38312;SDS011;24114;52.260;6.714;2022-09-09T10:33:10;4.00;;;0.40;;
38312;SDS011;24114;52.260;6.714;2022-09-09T10:35:43;2.25;;;0.30;;
38312;SDS011;24114;52.260;6.714;2022-09-09T10:38:14;3.80;;;0.60;;
38312;SDS011;24114;52.260;6.714;2022-09-09T10:43:39;2.73;;;0.47;;
38312;SDS011;24114;52.260;6.714;2022-09-09T10:46:17;6.10;;;0.57;;
38312;SDS011;24114;52.260;6.714;2022-09-09T10:48:55;5.13;;;0.52;;
38312;SDS011;24114;52.260;6.714;2022-09-09T10:51:33;4.40;;;0.70;;
38312;SDS011;24114;52.260;6.714;2022-09-09T10:54:13;2.80;;;0.40;;
38312;SDS011;24114;52.260;6.714;2022-09-09T10:56:58;2.35;;;0.60;;
38312;SDS011;24114;52.260;6.714;2022-09-09T10:59:29;3.70;;;0.45;;
38312;SDS011;24114;52.260;6.714;2022-09-09T11:02:02;3.83;;;0.50;;
38312;SDS011;24114;52.260;6.714;2022-09-09T11:04:33;3.47;;;0.50;;
38312;SDS011;24114;52.260;6.714;2022-09-09T11:07:05;3.55;;;0.40;;
38312;SDS011;24114;52.260;6.714;2022-09-09T11:09:38;1.95;;;0.40;;
38312;SDS011;24114;52.260;6.714;2022-09-09T11:12:09;4.40;;;0.55;;
38312;SDS011;24114;52.260;6.714;2022-09-09T11:14:41;3.55;;;0.70;;
38312;SDS011;24114;52.260;6.714;2022-09-09T11:17:12;3.65;;;0.60;;
38312;SDS011;24114;52.260;6.714;2022-09-09T11:19:43;3.45;;;0.40;;
38312;SDS011;24114;52.260;6.714;2022-09-09T11:22:15;2.13;;;0.30;;
38312;SDS011;24114;52.260;6.714;2022-09-09T11:24:47;5.25;;;0.85;;
38312;SDS011;24114;52.260;6.714;2022-09-09T11:27:17;8.07;;;1.10;;
38312;SDS011;24114;52.260;6.714;2022-09-09T11:29:55;5.72;;;1.15;;
38312;SDS011;24114;52.260;6.714;2022-09-09T11:32:49;4.55;;;0.98;;
38312;SDS011;24114;52.260;6.714;2022-09-09T11:35:30;6.57;;;1.20;;
38312;SDS011;24114;52.260;6.714;2022-09-09T11:38:10;4.23;;;1.00;;
38312;SDS011;24114;52.260;6.714;2022-09-09T11:42:36;5.97;;;1.10;;
38312;SDS011;24114;52.260;6.714;2022-09-09T11:45:10;6.53;;;0.80;;
38312;SDS011;24114;52.260;6.714;2022-09-09T11:47:51;3.90;;;0.60;;
38312;SDS011;24114;52.260;6.714;2022-09-09T11:53:17;4.25;;;0.88;;
38312;SDS011;24114;52.260;6.714;2022-09-09T11:56:05;3.63;;;0.57;;
38312;SDS011;24114;52.260;6.714;2022-09-09T11:58:43;4.80;;;0.63;;
38312;SDS011;24114;52.260;6.714;2022-09-09T12:01:25;5.53;;;0.60;;
38312;SDS011;24114;52.260;6.714;2022-09-09T12:04:01;4.85;;;0.50;;
38312;SDS011;24114;52.260;6.714;2022-09-09T12:06:41;5.05;;;0.40;;
38312;SDS011;24114;52.260;6.714;2022-09-09T12:09:12;2.30;;;0.28;;
38312;SDS011;24114;52.260;6.714;2022-09-09T12:11:47;2.22;;;0.30;;
38312;SDS011;24114;52.260;6.714;2022-09-09T12:14:23;2.70;;;0.30;;
38312;SDS011;24114;52.260;6.714;2022-09-09T12:17:09;2.70;;;0.50;;
38312;SDS011;24114;52.260;6.714;2022-09-09T12:19:37;2.58;;;0.50;;
38312;SDS011;24114;52.260;6.714;2022-09-09T12:22:06;2.78;;;0.43;;
38312;SDS011;24114;52.260;6.714;2022-09-09T12:24:39;4.70;;;0.70;;
38312;SDS011;24114;52.260;6.714;2022-09-09T12:27:12;1.45;;;0.30;;
38312;SDS011;24114;52.260;6.714;2022-09-09T12:29:46;2.38;;;0.40;;
38312;SDS011;24114;52.260;6.714;2022-09-09T12:32:20;3.08;;;0.60;;
38312;SDS011;24114;52.260;6.714;2022-09-09T12:34:52;3.57;;;0.50;;
38312;SDS011;24114;52.260;6.714;2022-09-09T12:37:27;4.55;;;0.65;;
38312;SDS011;24114;52.260;6.714;2022-09-09T12:39:57;2.00;;;0.25;;
38312;SDS011;24114;52.260;6.714;2022-09-09T12:42:26;1.52;;;0.28;;
38312;SDS011;24114;52.260;6.714;2022-09-09T12:44:56;3.30;;;0.47;;
38312;SDS011;24114;52.260;6.714;2022-09-09T12:47:27;2.65;;;0.38;;
38312;SDS011;24114;52.260;6.714;2022-09-09T12:50:01;2.03;;;0.30;;
38312;SDS011;24114;52.260;6.714;2022-09-09T12:52:30;2.28;;;0.20;;
38312;SDS011;24114;52.260;6.714;2022-09-09T12:55:00;2.45;;;0.20;;
38312;SDS011;24114;52.260;6.714;2022-09-09T12:57:31;2.20;;;0.40;;
38312;SDS011;24114;52.260;6.714;2022-09-09T13:00:06;2.08;;;0.20;;
38312;SDS011;24114;52.260;6.714;2022-09-09T13:02:44;3.78;;;0.30;;
38312;SDS011;24114;52.260;6.714;2022-09-09T13:05:14;3.80;;;0.50;;
38312;SDS011;24114;52.260;6.714;2022-09-09T13:07:44;2.53;;;0.50;;
38312;SDS011;24114;52.260;6.714;2022-09-09T13:10:12;4.03;;;0.55;;
38312;SDS011;24114;52.260;6.714;2022-09-09T13:12:55;3.22;;;0.70;;
38312;SDS011;24114;52.260;6.714;2022-09-09T13:15:26;2.83;;;0.40;;
38312;SDS011;24114;52.260;6.714;2022-09-09T13:17:56;3.40;;;0.50;;
38312;SDS011;24114;52.260;6.714;2022-09-09T13:20:24;2.40;;;0.60;;
38312;SDS011;24114;52.260;6.714;2022-09-09T13:22:53;4.40;;;0.57;;
38312;SDS011;24114;52.260;6.714;2022-09-09T13:25:23;3.80;;;0.60;;
38312;SDS011;24114;52.260;6.714;2022-09-09T13:27:59;1.90;;;0.40;;
38312;SDS011;24114;52.260;6.714;2022-09-09T13:30:30;1.88;;;0.35;;
38312;SDS011;24114;52.260;6.714;2022-09-09T13:33:03;2.33;;;0.52;;
38312;SDS011;24114;52.260;6.714;2022-09-09T13:35:32;2.83;;;0.70;;
38312;SDS011;24114;52.260;6.714;2022-09-09T13:38:06;3.40;;;0.90;;
38312;SDS011;24114;52.260;6.714;2022-09-09T13:40:34;5.88;;;1.08;;
38312;SDS011;24114;52.260;6.714;2022-09-09T13:43:03;2.08;;;0.70;;
38312;SDS011;24114;52.260;6.714;2022-09-09T13:45:32;2.80;;;0.90;;
38312;SDS011;24114;52.260;6.714;2022-09-09T13:48:08;3.10;;;0.85;;
38312;SDS011;24114;52.260;6.714;2022-09-09T13:50:36;2.77;;;0.47;;
38312;SDS011;24114;52.260;6.714;2022-09-09T13:53:04;1.88;;;0.38;;
38312;SDS011;24114;52.260;6.714;2022-09-09T13:55:32;1.50;;;0.50;;
38312;SDS011;24114;52.260;6.714;2022-09-09T13:58:00;2.45;;;0.65;;
38312;SDS011;24114;52.260;6.714;2022-09-09T14:00:30;6.00;;;0.50;;
38312;SDS011;24114;52.260;6.714;2022-09-09T14:03:00;2.00;;;0.60;;
38312;SDS011;24114;52.260;6.714;2022-09-09T14:05:29;2.78;;;0.60;;
38312;SDS011;24114;52.260;6.714;2022-09-09T14:07:58;1.58;;;0.70;;
38312;SDS011;24114;52.260;6.714;2022-09-09T14:10:26;2.10;;;0.65;;
38312;SDS011;24114;52.260;6.714;2022-09-09T14:12:54;2.80;;;0.93;;
38312;SDS011;24114;52.260;6.714;2022-09-09T14:15:22;2.67;;;0.68;;
38312;SDS011;24114;52.260;6.714;2022-09-09T14:17:49;2.60;;;0.70;;
38312;SDS011;24114;52.260;6.714;2022-09-09T14:20:19;3.23;;;1.00;;
38312;SDS011;24114;52.260;6.714;2022-09-09T14:22:47;1.90;;;0.60;;
38312;SDS011;24114;52.260;6.714;2022-09-09T14:25:15;2.85;;;0.90;;
38312;SDS011;24114;52.260;6.714;2022-09-09T14:27:43;2.60;;;0.70;;
38312;SDS011;24114;52.260;6.714;2022-09-09T14:30:12;1.92;;;1.00;;
38312;SDS011;24114;52.260;6.714;2022-09-09T14:32:39;2.13;;;0.50;;
38312;SDS011;24114;52.260;6.714;2022-09-09T14:35:07;1.85;;;0.73;;
38312;SDS011;24114;52.260;6.714;2022-09-09T14:37:37;1.87;;;1.10;;
38312;SDS011;24114;52.260;6.714;2022-09-09T14:40:06;2.88;;;0.90;;
38312;SDS011;24114;52.260;6.714;2022-09-09T14:42:34;4.18;;;1.25;;
38312;SDS011;24114;52.260;6.714;2022-09-09T14:45:02;2.50;;;1.10;;
38312;SDS011;24114;52.260;6.714;2022-09-09T14:47:31;2.28;;;1.13;;
38312;SDS011;24114;52.260;6.714;2022-09-09T14:49:58;2.90;;;1.13;;
38312;SDS011;24114;52.260;6.714;2022-09-09T14:52:27;3.10;;;1.13;;
38312;SDS011;24114;52.260;6.714;2022-09-09T14:54:56;2.75;;;1.30;;
38312;SDS011;24114;52.260;6.714;2022-09-09T14:57:24;3.33;;;1.10;;
38312;SDS011;24114;52.260;6.714;2022-09-09T14:59:52;3.38;;;1.30;;
38312;SDS011;24114;52.260;6.714;2022-09-09T15:02:20;3.65;;;1.33;;
38312;SDS011;24114;52.260;6.714;2022-09-09T15:04:48;2.60;;;1.20;;
38312;SDS011;24114;52.260;6.714;2022-09-09T15:07:16;3.42;;;1.45;;
38312;SDS011;24114;52.260;6.714;2022-09-09T15:09:45;2.42;;;1.13;;
38312;SDS011;24114;52.260;6.714;2022-09-09T15:12:15;2.92;;;1.23;;
38312;SDS011;24114;52.260;6.714;2022-09-09T15:14:44;2.45;;;1.10;;
38312;SDS011;24114;52.260;6.714;2022-09-09T15:17:12;4.17;;;1.47;;
38312;SDS011;24114;52.260;6.714;2022-09-09T15:19:40;2.33;;;1.00;;
38312;SDS011;24114;52.260;6.714;2022-09-09T15:22:08;2.83;;;1.20;;
38312;SDS011;24114;52.260;6.714;2022-09-09T15:24:36;2.47;;;1.08;;
38312;SDS011;24114;52.260;6.714;2022-09-09T15:27:03;3.35;;;1.42;;